sensor_id;sensor_type;location;lat;lon;timestamp;P1;durP1;ratioP1;P2;durP2;ratioP2
24147;SDS011;12309;51.450;-2.624;2023-08-06T00:00:20;2.33;;;1.42;;
24147;SDS011;12309;51.450;-2.624;2023-08-06T00:02:47;3.53;;;1.73;;
24147;SDS011;12309;51.450;-2.624;2023-08-06T00:05:13;2.80;;;1.52;;
24147;SDS011;12309;51.450;-2.624;2023-08-06T00:07:38;7.45;;;1.77;;
24147;SDS011;12309;51.450;-2.624;2023-08-06T00:10:04;2.03;;;1.38;;
24147;SDS011;12309;51.450;-2.624;2023-08-06T00:12:30;2.65;;;1.48;;
24147;SDS011;12309;51.450;-2.624;2023-08-06T00:14:55;4.28;;;1.63;;
24147;SDS011;12309;51.450;-2.624;2023-08-06T00:17:21;2.83;;;1.63;;
24147;SDS011;12309;51.450;-2.624;2023-08-06T00:19:47;3.87;;;1.40;;
24147;SDS011;12309;51.450;-2.624;2023-08-06T00:22:13;4.53;;;1.90;;
24147;SDS011;12309;51.450;-2.624;2023-08-06T00:24:38;4.13;;;1.63;;
24147;SDS011;12309;51.450;-2.624;2023-08-06T00:27:04;4.90;;;2.00;;
24147;SDS011;12309;51.450;-2.624;2023-08-06T00:29:30;4.20;;;1.60;;
24147;SDS011;12309;51.450;-2.624;2023-08-06T00:31:55;4.07;;;1.60;;
24147;SDS011;12309;51.450;-2.624;2023-08-06T00:34:21;2.75;;;1.77;;
24147;SDS011;12309;51.450;-2.624;2023-08-06T00:36:46;2.30;;;1.53;;
24147;SDS011;12309;51.450;-2.624;2023-08-06T00:39:12;2.10;;;1.60;;
24147;SDS011;12309;51.450;-2.624;2023-08-06T00:41:38;4.63;;;1.43;;
24147;SDS011;12309;51.450;-2.624;2023-08-06T00:44:04;3.27;;;1.60;;
24147;SDS011;12309;51.450;-2.624;2023-08-06T00:46:31;5.57;;;1.58;;
24147;SDS011;12309;51.450;-2.624;2023-08-06T00:48:58;3.57;;;1.60;;
24147;SDS011;12309;51.450;-2.624;2023-08-06T00:51:24;5.30;;;1.40;;
24147;SDS011;12309;51.450;-2.624;2023-08-06T00:53:50;3.60;;;1.70;;
24147;SDS011;12309;51.450;-2.624;2023-08-06T00:56:18;4.17;;;1.83;;
24147;SDS011;12309;51.450;-2.624;2023-08-06T00:58:44;5.90;;;1.70;;
24147;SDS011;12309;51.450;-2.624;2023-08-06T01:01:11;2.33;;;1.30;;
24147;SDS011;12309;51.450;-2.624;2023-08-06T01:03:37;2.33;;;1.60;;
24147;SDS011;12309;51.450;-2.624;2023-08-06T01:06:02;5.13;;;1.70;;
24147;SDS011;12309;51.450;-2.624;2023-08-06T01:11:31;3.97;;;1.50;;
24147;SDS011;12309;51.450;-2.624;2023-08-06T01:14:45;5.33;;;1.63;;
24147;SDS011;12309;51.450;-2.624;2023-08-06T01:17:31;7.83;;;1.63;;
24147;SDS011;12309;51.450;-2.624;2023-08-06T01:19:57;4.03;;;1.60;;
24147;SDS011;12309;51.450;-2.624;2023-08-06T01:22:23;5.57;;;2.00;;
24147;SDS011;12309;51.450;-2.624;2023-08-06T01:24:49;7.10;;;1.40;;
24147;SDS011;12309;51.450;-2.624;2023-08-06T01:30:25;3.60;;;1.47;;
24147;SDS011;12309;51.450;-2.624;2023-08-06T01:32:58;3.87;;;1.60;;
24147;SDS011;12309;51.450;-2.624;2023-08-06T01:35:28;3.93;;;1.80;;
24147;SDS011;12309;51.450;-2.624;2023-08-06T01:37:55;5.03;;;1.93;;
24147;SDS011;12309;51.450;-2.624;2023-08-06T01:40:21;2.70;;;1.60;;
24147;SDS011;12309;51.450;-2.624;2023-08-06T01:42:47;6.80;;;1.80;;
24147;SDS011;12309;51.450;-2.624;2023-08-06T01:45:12;5.40;;;1.57;;
24147;SDS011;12309;51.450;-2.624;2023-08-06T01:47:38;3.70;;;1.73;;
24147;SDS011;12309;51.450;-2.624;2023-08-06T01:50:04;6.10;;;1.60;;
24147;SDS011;12309;51.450;-2.624;2023-08-06T01:52:30;5.20;;;1.67;;
24147;SDS011;12309;51.450;-2.624;2023-08-06T01:54:55;4.80;;;1.30;;
24147;SDS011;12309;51.450;-2.624;2023-08-06T01:57:21;4.07;;;1.80;;
24147;SDS011;12309;51.450;-2.624;2023-08-06T01:59:47;3.47;;;1.47;;
24147;SDS011;12309;51.450;-2.624;2023-08-06T02:02:12;3.67;;;1.93;;
24147;SDS011;12309;51.450;-2.624;2023-08-06T02:04:38;5.20;;;1.80;;
24147;SDS011;12309;51.450;-2.624;2023-08-06T02:07:04;3.93;;;1.60;;
24147;SDS011;12309;51.450;-2.624;2023-08-06T02:09:30;3.83;;;1.60;;
24147;SDS011;12309;51.450;-2.624;2023-08-06T02:11:55;5.70;;;1.77;;
24147;SDS011;12309;51.450;-2.624;2023-08-06T02:14:21;2.77;;;1.70;;
24147;SDS011;12309;51.450;-2.624;2023-08-06T02:16:46;3.53;;;1.87;;
24147;SDS011;12309;51.450;-2.624;2023-08-06T02:19:12;7.37;;;1.70;;
24147;SDS011;12309;51.450;-2.624;2023-08-06T02:21:37;4.70;;;1.80;;
24147;SDS011;12309;51.450;-2.624;2023-08-06T02:24:03;7.27;;;1.93;;
24147;SDS011;12309;51.450;-2.624;2023-08-06T02:26:29;4.33;;;1.53;;
24147;SDS011;12309;51.450;-2.624;2023-08-06T02:28:54;4.83;;;1.67;;
24147;SDS011;12309;51.450;-2.624;2023-08-06T02:31:20;8.97;;;1.97;;
24147;SDS011;12309;51.450;-2.624;2023-08-06T02:33:46;4.13;;;1.90;;
24147;SDS011;12309;51.450;-2.624;2023-08-06T02:36:12;3.53;;;1.50;;
24147;SDS011;12309;51.450;-2.624;2023-08-06T02:38:37;5.83;;;1.90;;
24147;SDS011;12309;51.450;-2.624;2023-08-06T02:41:03;5.17;;;1.67;;
24147;SDS011;12309;51.450;-2.624;2023-08-06T02:43:29;5.83;;;1.73;;
24147;SDS011;12309;51.450;-2.624;2023-08-06T02:45:58;7.40;;;1.70;;
24147;SDS011;12309;51.450;-2.624;2023-08-06T02:48:25;4.00;;;1.40;;
24147;SDS011;12309;51.450;-2.624;2023-08-06T02:50:50;3.53;;;1.40;;
24147;SDS011;12309;51.450;-2.624;2023-08-06T02:53:16;5.27;;;1.73;;
24147;SDS011;12309;51.450;-2.624;2023-08-06T02:55:46;6.23;;;1.63;;
24147;SDS011;12309;51.450;-2.624;2023-08-06T02:58:15;7.33;;;1.60;;
24147;SDS011;12309;51.450;-2.624;2023-08-06T03:00:41;3.87;;;1.40;;
24147;SDS011;12309;51.450;-2.624;2023-08-06T03:03:08;4.73;;;1.30;;
24147;SDS011;12309;51.450;-2.624;2023-08-06T03:05:34;4.13;;;1.67;;
24147;SDS011;12309;51.450;-2.624;2023-08-06T03:07:59;4.73;;;1.50;;
24147;SDS011;12309;51.450;-2.624;2023-08-06T03:10:25;2.13;;;1.27;;
24147;SDS011;12309;51.450;-2.624;2023-08-06T03:12:50;4.47;;;1.50;;
24147;SDS011;12309;51.450;-2.624;2023-08-06T03:15:16;4.90;;;1.93;;
24147;SDS011;12309;51.450;-2.624;2023-08-06T03:17:41;3.53;;;1.53;;
24147;SDS011;12309;51.450;-2.624;2023-08-06T03:20:09;4.80;;;1.53;;
24147;SDS011;12309;51.450;-2.624;2023-08-06T03:22:35;3.93;;;2.00;;
24147;SDS011;12309;51.450;-2.624;2023-08-06T03:25:00;4.47;;;1.47;;
24147;SDS011;12309;51.450;-2.624;2023-08-06T03:27:26;3.97;;;1.57;;
24147;SDS011;12309;51.450;-2.624;2023-08-06T03:29:52;3.83;;;1.67;;
24147;SDS011;12309;51.450;-2.624;2023-08-06T03:32:17;5.77;;;1.63;;
24147;SDS011;12309;51.450;-2.624;2023-08-06T03:34:43;3.03;;;1.53;;
24147;SDS011;12309;51.450;-2.624;2023-08-06T03:37:09;3.97;;;2.00;;
24147;SDS011;12309;51.450;-2.624;2023-08-06T03:39:34;7.63;;;2.10;;
24147;SDS011;12309;51.450;-2.624;2023-08-06T03:42:00;4.20;;;1.67;;
24147;SDS011;12309;51.450;-2.624;2023-08-06T03:44:26;4.77;;;1.40;;
24147;SDS011;12309;51.450;-2.624;2023-08-06T03:46:53;2.87;;;1.37;;
24147;SDS011;12309;51.450;-2.624;2023-08-06T03:49:18;3.47;;;1.60;;
24147;SDS011;12309;51.450;-2.624;2023-08-06T03:51:44;5.03;;;1.60;;
24147;SDS011;12309;51.450;-2.624;2023-08-06T03:54:10;6.63;;;1.67;;
24147;SDS011;12309;51.450;-2.624;2023-08-06T03:56:35;6.60;;;1.50;;
24147;SDS011;12309;51.450;-2.624;2023-08-06T03:59:01;10.30;;;1.90;;
24147;SDS011;12309;51.450;-2.624;2023-08-06T04:01:27;3.63;;;1.73;;
24147;SDS011;12309;51.450;-2.624;2023-08-06T04:03:52;4.53;;;1.53;;
24147;SDS011;12309;51.450;-2.624;2023-08-06T04:06:18;3.13;;;1.80;;
24147;SDS011;12309;51.450;-2.624;2023-08-06T04:08:44;5.77;;;1.80;;
24147;SDS011;12309;51.450;-2.624;2023-08-06T04:11:09;4.20;;;1.73;;
24147;SDS011;12309;51.450;-2.624;2023-08-06T04:13:35;4.67;;;1.33;;
24147;SDS011;12309;51.450;-2.624;2023-08-06T04:16:04;2.77;;;1.57;;
24147;SDS011;12309;51.450;-2.624;2023-08-06T04:18:30;6.40;;;2.10;;
24147;SDS011;12309;51.450;-2.624;2023-08-06T04:20:56;10.90;;;1.80;;
24147;SDS011;12309;51.450;-2.624;2023-08-06T04:23:22;3.00;;;1.90;;
24147;SDS011;12309;51.450;-2.624;2023-08-06T04:25:48;6.17;;;1.77;;
24147;SDS011;12309;51.450;-2.624;2023-08-06T04:28:14;4.30;;;1.77;;
24147;SDS011;12309;51.450;-2.624;2023-08-06T04:30:39;2.87;;;1.60;;
24147;SDS011;12309;51.450;-2.624;2023-08-06T04:33:05;6.13;;;1.70;;
24147;SDS011;12309;51.450;-2.624;2023-08-06T04:35:30;5.93;;;1.70;;
24147;SDS011;12309;51.450;-2.624;2023-08-06T04:37:56;4.30;;;1.67;;
24147;SDS011;12309;51.450;-2.624;2023-08-06T04:40:22;4.57;;;1.80;;
24147;SDS011;12309;51.450;-2.624;2023-08-06T04:42:48;2.90;;;1.60;;
24147;SDS011;12309;51.450;-2.624;2023-08-06T04:45:13;4.50;;;1.73;;
24147;SDS011;12309;51.450;-2.624;2023-08-06T04:47:39;4.33;;;1.60;;
24147;SDS011;12309;51.450;-2.624;2023-08-06T04:50:05;4.17;;;1.73;;
24147;SDS011;12309;51.450;-2.624;2023-08-06T04:52:30;3.50;;;1.50;;
24147;SDS011;12309;51.450;-2.624;2023-08-06T04:54:57;2.40;;;1.40;;
24147;SDS011;12309;51.450;-2.624;2023-08-06T04:57:23;3.53;;;1.60;;
24147;SDS011;12309;51.450;-2.624;2023-08-06T04:59:48;5.67;;;1.53;;
24147;SDS011;12309;51.450;-2.624;2023-08-06T05:02:14;8.30;;;1.90;;
24147;SDS011;12309;51.450;-2.624;2023-08-06T05:04:40;5.87;;;2.00;;
24147;SDS011;12309;51.450;-2.624;2023-08-06T05:07:05;4.17;;;1.80;;
24147;SDS011;12309;51.450;-2.624;2023-08-06T05:09:31;5.37;;;1.70;;
24147;SDS011;12309;51.450;-2.624;2023-08-06T05:11:57;5.80;;;2.23;;
24147;SDS011;12309;51.450;-2.624;2023-08-06T05:14:25;5.80;;;1.90;;
24147;SDS011;12309;51.450;-2.624;2023-08-06T05:16:51;6.23;;;2.00;;
24147;SDS011;12309;51.450;-2.624;2023-08-06T05:19:16;5.37;;;2.00;;
24147;SDS011;12309;51.450;-2.624;2023-08-06T05:21:42;4.23;;;2.00;;
24147;SDS011;12309;51.450;-2.624;2023-08-06T05:24:07;6.77;;;2.30;;
24147;SDS011;12309;51.450;-2.624;2023-08-06T05:26:33;8.50;;;1.80;;
24147;SDS011;12309;51.450;-2.624;2023-08-06T05:29:00;3.37;;;1.73;;
24147;SDS011;12309;51.450;-2.624;2023-08-06T05:31:25;4.23;;;1.53;;
24147;SDS011;12309;51.450;-2.624;2023-08-06T05:33:51;3.57;;;1.60;;
24147;SDS011;12309;51.450;-2.624;2023-08-06T05:36:17;9.10;;;1.83;;
24147;SDS011;12309;51.450;-2.624;2023-08-06T05:38:43;3.63;;;1.77;;
24147;SDS011;12309;51.450;-2.624;2023-08-06T05:41:08;5.13;;;1.80;;
24147;SDS011;12309;51.450;-2.624;2023-08-06T05:43:34;6.00;;;2.00;;
24147;SDS011;12309;51.450;-2.624;2023-08-06T05:45:59;2.73;;;1.67;;
24147;SDS011;12309;51.450;-2.624;2023-08-06T05:48:25;4.77;;;1.80;;
24147;SDS011;12309;51.450;-2.624;2023-08-06T05:50:52;7.93;;;2.00;;
24147;SDS011;12309;51.450;-2.624;2023-08-06T05:53:18;5.30;;;2.07;;
24147;SDS011;12309;51.450;-2.624;2023-08-06T05:55:44;8.73;;;2.00;;
24147;SDS011;12309;51.450;-2.624;2023-08-06T05:58:10;6.53;;;2.03;;
24147;SDS011;12309;51.450;-2.624;2023-08-06T06:00:35;5.13;;;1.70;;
24147;SDS011;12309;51.450;-2.624;2023-08-06T06:03:01;5.57;;;1.90;;
24147;SDS011;12309;51.450;-2.624;2023-08-06T06:05:28;4.75;;;2.00;;
24147;SDS011;12309;51.450;-2.624;2023-08-06T06:07:53;4.93;;;1.90;;
24147;SDS011;12309;51.450;-2.624;2023-08-06T06:10:19;6.22;;;1.83;;
24147;SDS011;12309;51.450;-2.624;2023-08-06T06:12:44;4.55;;;1.60;;
24147;SDS011;12309;51.450;-2.624;2023-08-06T06:15:10;6.22;;;1.73;;
24147;SDS011;12309;51.450;-2.624;2023-08-06T06:17:36;8.15;;;1.73;;
24147;SDS011;12309;51.450;-2.624;2023-08-06T06:20:01;4.47;;;1.67;;
24147;SDS011;12309;51.450;-2.624;2023-08-06T06:22:29;4.07;;;1.65;;
24147;SDS011;12309;51.450;-2.624;2023-08-06T06:24:55;7.60;;;1.25;;
24147;SDS011;12309;51.450;-2.624;2023-08-06T06:27:20;4.50;;;1.35;;
24147;SDS011;12309;51.450;-2.624;2023-08-06T06:29:46;2.05;;;1.30;;
24147;SDS011;12309;51.450;-2.624;2023-08-06T06:32:11;4.22;;;1.50;;
24147;SDS011;12309;51.450;-2.624;2023-08-06T06:34:37;1.75;;;1.27;;
24147;SDS011;12309;51.450;-2.624;2023-08-06T06:37:03;5.47;;;1.90;;
24147;SDS011;12309;51.450;-2.624;2023-08-06T06:39:29;2.60;;;0.98;;
24147;SDS011;12309;51.450;-2.624;2023-08-06T06:41:54;5.28;;;1.40;;
24147;SDS011;12309;51.450;-2.624;2023-08-06T06:44:20;7.25;;;1.60;;
24147;SDS011;12309;51.450;-2.624;2023-08-06T06:46:46;5.93;;;1.10;;
24147;SDS011;12309;51.450;-2.624;2023-08-06T06:49:12;3.75;;;1.10;;
24147;SDS011;12309;51.450;-2.624;2023-08-06T06:51:37;3.40;;;1.10;;
24147;SDS011;12309;51.450;-2.624;2023-08-06T06:54:03;5.35;;;1.27;;
24147;SDS011;12309;51.450;-2.624;2023-08-06T06:56:29;3.25;;;0.95;;
24147;SDS011;12309;51.450;-2.624;2023-08-06T06:58:54;3.92;;;1.00;;
24147;SDS011;12309;51.450;-2.624;2023-08-06T07:01:20;5.68;;;1.13;;
24147;SDS011;12309;51.450;-2.624;2023-08-06T07:03:46;5.47;;;1.02;;
24147;SDS011;12309;51.450;-2.624;2023-08-06T07:06:12;4.72;;;1.38;;
24147;SDS011;12309;51.450;-2.624;2023-08-06T07:08:37;6.72;;;1.48;;
24147;SDS011;12309;51.450;-2.624;2023-08-06T07:11:04;4.90;;;1.20;;
24147;SDS011;12309;51.450;-2.624;2023-08-06T07:13:30;2.72;;;1.13;;
24147;SDS011;12309;51.450;-2.624;2023-08-06T07:15:56;4.93;;;1.25;;
24147;SDS011;12309;51.450;-2.624;2023-08-06T07:18:23;3.97;;;1.00;;
24147;SDS011;12309;51.450;-2.624;2023-08-06T07:20:52;3.17;;;0.98;;
24147;SDS011;12309;51.450;-2.624;2023-08-06T07:23:23;5.03;;;1.10;;
24147;SDS011;12309;51.450;-2.624;2023-08-06T07:25:49;4.65;;;1.52;;
24147;SDS011;12309;51.450;-2.624;2023-08-06T07:28:15;4.85;;;1.10;;
24147;SDS011;12309;51.450;-2.624;2023-08-06T07:30:42;4.10;;;1.10;;
24147;SDS011;12309;51.450;-2.624;2023-08-06T07:33:08;1.58;;;0.80;;
24147;SDS011;12309;51.450;-2.624;2023-08-06T07:35:34;3.85;;;0.98;;
24147;SDS011;12309;51.450;-2.624;2023-08-06T07:38:00;3.80;;;1.25;;
24147;SDS011;12309;51.450;-2.624;2023-08-06T07:40:25;7.47;;;1.00;;
24147;SDS011;12309;51.450;-2.624;2023-08-06T07:42:51;6.82;;;1.00;;
24147;SDS011;12309;51.450;-2.624;2023-08-06T07:45:17;4.25;;;1.13;;
24147;SDS011;12309;51.450;-2.624;2023-08-06T07:47:43;2.30;;;1.10;;
24147;SDS011;12309;51.450;-2.624;2023-08-06T07:50:09;1.80;;;0.90;;
24147;SDS011;12309;51.450;-2.624;2023-08-06T07:52:35;4.40;;;1.08;;
24147;SDS011;12309;51.450;-2.624;2023-08-06T07:55:01;2.28;;;0.70;;
24147;SDS011;12309;51.450;-2.624;2023-08-06T07:57:30;3.10;;;0.80;;
24147;SDS011;12309;51.450;-2.624;2023-08-06T07:59:56;1.80;;;0.70;;
24147;SDS011;12309;51.450;-2.624;2023-08-06T08:02:22;4.18;;;0.90;;
24147;SDS011;12309;51.450;-2.624;2023-08-06T08:04:47;3.28;;;1.55;;
24147;SDS011;12309;51.450;-2.624;2023-08-06T08:07:13;2.47;;;0.77;;
24147;SDS011;12309;51.450;-2.624;2023-08-06T08:09:39;2.00;;;0.73;;
24147;SDS011;12309;51.450;-2.624;2023-08-06T08:12:05;3.90;;;0.70;;
24147;SDS011;12309;51.450;-2.624;2023-08-06T08:14:31;1.30;;;0.57;;
24147;SDS011;12309;51.450;-2.624;2023-08-06T08:17:03;3.17;;;0.90;;
24147;SDS011;12309;51.450;-2.624;2023-08-06T08:19:30;2.60;;;0.77;;
24147;SDS011;12309;51.450;-2.624;2023-08-06T08:21:56;2.08;;;0.75;;
24147;SDS011;12309;51.450;-2.624;2023-08-06T08:24:22;3.95;;;0.65;;
24147;SDS011;12309;51.450;-2.624;2023-08-06T08:26:49;5.05;;;0.90;;
24147;SDS011;12309;51.450;-2.624;2023-08-06T08:29:21;1.63;;;0.70;;
24147;SDS011;12309;51.450;-2.624;2023-08-06T08:31:47;2.63;;;1.38;;
24147;SDS011;12309;51.450;-2.624;2023-08-06T08:34:16;2.08;;;0.70;;
24147;SDS011;12309;51.450;-2.624;2023-08-06T08:36:42;3.47;;;0.95;;
24147;SDS011;12309;51.450;-2.624;2023-08-06T08:39:08;1.60;;;0.80;;
24147;SDS011;12309;51.450;-2.624;2023-08-06T08:41:36;1.73;;;0.70;;
24147;SDS011;12309;51.450;-2.624;2023-08-06T08:44:02;2.33;;;0.60;;
24147;SDS011;12309;51.450;-2.624;2023-08-06T08:46:32;2.97;;;0.80;;
24147;SDS011;12309;51.450;-2.624;2023-08-06T08:49:00;3.35;;;0.68;;
24147;SDS011;12309;51.450;-2.624;2023-08-06T08:51:27;1.13;;;0.60;;
24147;SDS011;12309;51.450;-2.624;2023-08-06T08:53:54;1.75;;;0.80;;
24147;SDS011;12309;51.450;-2.624;2023-08-06T08:56:24;1.92;;;0.80;;
24147;SDS011;12309;51.450;-2.624;2023-08-06T08:58:50;2.03;;;0.60;;
24147;SDS011;12309;51.450;-2.624;2023-08-06T09:01:20;4.63;;;0.90;;
24147;SDS011;12309;51.450;-2.624;2023-08-06T09:03:47;6.30;;;0.90;;
24147;SDS011;12309;51.450;-2.624;2023-08-06T09:06:13;1.92;;;0.60;;
24147;SDS011;12309;51.450;-2.624;2023-08-06T09:08:47;3.08;;;1.20;;
24147;SDS011;12309;51.450;-2.624;2023-08-06T09:11:34;2.75;;;0.80;;
24147;SDS011;12309;51.450;-2.624;2023-08-06T09:14:07;8.93;;;1.77;;
24147;SDS011;12309;51.450;-2.624;2023-08-06T09:16:36;6.82;;;1.00;;
24147;SDS011;12309;51.450;-2.624;2023-08-06T09:21:38;2.90;;;0.70;;
24147;SDS011;12309;51.450;-2.624;2023-08-06T09:24:11;1.83;;;0.93;;
24147;SDS011;12309;51.450;-2.624;2023-08-06T09:26:38;4.00;;;1.15;;
24147;SDS011;12309;51.450;-2.624;2023-08-06T09:29:07;4.10;;;0.80;;
24147;SDS011;12309;51.450;-2.624;2023-08-06T09:31:49;5.10;;;1.00;;
24147;SDS011;12309;51.450;-2.624;2023-08-06T09:34:18;3.45;;;0.80;;
24147;SDS011;12309;51.450;-2.624;2023-08-06T09:36:51;4.57;;;0.90;;
24147;SDS011;12309;51.450;-2.624;2023-08-06T09:39:18;4.35;;;0.70;;
24147;SDS011;12309;51.450;-2.624;2023-08-06T09:41:45;5.88;;;0.75;;
24147;SDS011;12309;51.450;-2.624;2023-08-06T09:44:17;4.80;;;0.80;;
24147;SDS011;12309;51.450;-2.624;2023-08-06T09:46:50;4.55;;;0.80;;
24147;SDS011;12309;51.450;-2.624;2023-08-06T09:49:28;4.10;;;0.77;;
24147;SDS011;12309;51.450;-2.624;2023-08-06T09:51:57;3.95;;;0.77;;
24147;SDS011;12309;51.450;-2.624;2023-08-06T09:54:24;1.63;;;0.50;;
24147;SDS011;12309;51.450;-2.624;2023-08-06T09:56:52;3.70;;;0.70;;
24147;SDS011;12309;51.450;-2.624;2023-08-06T09:59:21;2.40;;;0.60;;
24147;SDS011;12309;51.450;-2.624;2023-08-06T10:01:48;3.33;;;0.70;;
24147;SDS011;12309;51.450;-2.624;2023-08-06T10:04:15;3.33;;;0.73;;
24147;SDS011;12309;51.450;-2.624;2023-08-06T10:06:42;1.90;;;0.50;;
24147;SDS011;12309;51.450;-2.624;2023-08-06T10:09:11;2.42;;;0.57;;
24147;SDS011;12309;51.450;-2.624;2023-08-06T10:11:36;1.90;;;0.60;;
24147;SDS011;12309;51.450;-2.624;2023-08-06T10:14:11;3.80;;;0.70;;
24147;SDS011;12309;51.450;-2.624;2023-08-06T10:16:41;4.03;;;0.95;;
24147;SDS011;12309;51.450;-2.624;2023-08-06T10:19:07;1.35;;;0.60;;
24147;SDS011;12309;51.450;-2.624;2023-08-06T10:21:35;5.03;;;0.70;;
24147;SDS011;12309;51.450;-2.624;2023-08-06T10:24:02;1.67;;;0.60;;
24147;SDS011;12309;51.450;-2.624;2023-08-06T10:26:34;2.88;;;0.82;;
24147;SDS011;12309;51.450;-2.624;2023-08-06T10:29:00;2.22;;;0.55;;
24147;SDS011;12309;51.450;-2.624;2023-08-06T10:34:22;2.60;;;0.70;;
24147;SDS011;12309;51.450;-2.624;2023-08-06T10:36:48;2.17;;;0.77;;
24147;SDS011;12309;51.450;-2.624;2023-08-06T10:39:14;1.35;;;0.73;;
24147;SDS011;12309;51.450;-2.624;2023-08-06T10:41:42;2.78;;;0.68;;
24147;SDS011;12309;51.450;-2.624;2023-08-06T10:44:09;1.77;;;0.68;;
24147;SDS011;12309;51.450;-2.624;2023-08-06T10:46:36;3.05;;;0.70;;
24147;SDS011;12309;51.450;-2.624;2023-08-06T10:49:03;3.47;;;0.90;;
24147;SDS011;12309;51.450;-2.624;2023-08-06T10:51:29;1.58;;;0.80;;
24147;SDS011;12309;51.450;-2.624;2023-08-06T10:53:55;2.85;;;0.60;;
24147;SDS011;12309;51.450;-2.624;2023-08-06T10:56:23;2.20;;;0.70;;
24147;SDS011;12309;51.450;-2.624;2023-08-06T10:58:55;1.38;;;0.70;;
24147;SDS011;12309;51.450;-2.624;2023-08-06T11:01:22;1.73;;;0.70;;
24147;SDS011;12309;51.450;-2.624;2023-08-06T11:03:48;2.80;;;0.80;;
24147;SDS011;12309;51.450;-2.624;2023-08-06T11:06:22;2.05;;;0.60;;
24147;SDS011;12309;51.450;-2.624;2023-08-06T11:08:49;0.93;;;0.57;;
24147;SDS011;12309;51.450;-2.624;2023-08-06T11:11:16;2.50;;;0.80;;
24147;SDS011;12309;51.450;-2.624;2023-08-06T11:13:47;2.20;;;0.77;;
24147;SDS011;12309;51.450;-2.624;2023-08-06T11:16:14;5.13;;;0.75;;
24147;SDS011;12309;51.450;-2.624;2023-08-06T11:18:43;3.25;;;0.82;;
24147;SDS011;12309;51.450;-2.624;2023-08-06T11:21:10;5.35;;;1.05;;
24147;SDS011;12309;51.450;-2.624;2023-08-06T11:23:39;3.63;;;0.80;;
24147;SDS011;12309;51.450;-2.624;2023-08-06T11:26:05;2.28;;;0.65;;
24147;SDS011;12309;51.450;-2.624;2023-08-06T11:28:32;1.20;;;0.73;;
24147;SDS011;12309;51.450;-2.624;2023-08-06T11:30:58;2.35;;;0.70;;
24147;SDS011;12309;51.450;-2.624;2023-08-06T11:33:27;2.42;;;0.70;;
24147;SDS011;12309;51.450;-2.624;2023-08-06T11:35:57;1.75;;;0.70;;
24147;SDS011;12309;51.450;-2.624;2023-08-06T11:38:27;4.22;;;1.17;;
24147;SDS011;12309;51.450;-2.624;2023-08-06T11:40:54;2.67;;;0.75;;
24147;SDS011;12309;51.450;-2.624;2023-08-06T11:43:20;2.22;;;0.80;;
24147;SDS011;12309;51.450;-2.624;2023-08-06T11:45:50;2.08;;;0.98;;
24147;SDS011;12309;51.450;-2.624;2023-08-06T11:48:17;1.80;;;0.88;;
24147;SDS011;12309;51.450;-2.624;2023-08-06T11:50:44;2.03;;;1.00;;
24147;SDS011;12309;51.450;-2.624;2023-08-06T11:53:12;2.97;;;0.77;;
24147;SDS011;12309;51.450;-2.624;2023-08-06T11:55:39;2.00;;;0.77;;
24147;SDS011;12309;51.450;-2.624;2023-08-06T11:58:05;1.10;;;0.75;;
24147;SDS011;12309;51.450;-2.624;2023-08-06T12:00:30;4.55;;;0.80;;
24147;SDS011;12309;51.450;-2.624;2023-08-06T12:02:56;3.38;;;0.88;;
24147;SDS011;12309;51.450;-2.624;2023-08-06T12:05:23;2.00;;;0.70;;
24147;SDS011;12309;51.450;-2.624;2023-08-06T12:07:57;1.85;;;0.60;;
24147;SDS011;12309;51.450;-2.624;2023-08-06T12:10:24;2.90;;;1.00;;
24147;SDS011;12309;51.450;-2.624;2023-08-06T12:12:51;2.83;;;0.85;;
24147;SDS011;12309;51.450;-2.624;2023-08-06T12:15:17;1.42;;;0.77;;
24147;SDS011;12309;51.450;-2.624;2023-08-06T12:17:43;1.90;;;0.90;;
24147;SDS011;12309;51.450;-2.624;2023-08-06T12:20:09;2.15;;;0.90;;
24147;SDS011;12309;51.450;-2.624;2023-08-06T12:22:35;1.23;;;0.50;;
24147;SDS011;12309;51.450;-2.624;2023-08-06T12:25:02;2.42;;;0.90;;
24147;SDS011;12309;51.450;-2.624;2023-08-06T12:27:31;1.83;;;0.80;;
24147;SDS011;12309;51.450;-2.624;2023-08-06T12:29:57;1.60;;;0.70;;
24147;SDS011;12309;51.450;-2.624;2023-08-06T12:32:22;1.70;;;0.73;;
24147;SDS011;12309;51.450;-2.624;2023-08-06T12:34:48;1.95;;;0.70;;
24147;SDS011;12309;51.450;-2.624;2023-08-06T12:37:14;3.35;;;0.63;;
24147;SDS011;12309;51.450;-2.624;2023-08-06T12:39:39;2.72;;;1.08;;
24147;SDS011;12309;51.450;-2.624;2023-08-06T12:42:05;11.27;;;1.10;;
24147;SDS011;12309;51.450;-2.624;2023-08-06T12:44:31;3.10;;;0.80;;
24147;SDS011;12309;51.450;-2.624;2023-08-06T12:46:57;1.60;;;0.60;;
24147;SDS011;12309;51.450;-2.624;2023-08-06T12:49:24;1.98;;;0.55;;
24147;SDS011;12309;51.450;-2.624;2023-08-06T12:51:51;1.85;;;0.70;;
24147;SDS011;12309;51.450;-2.624;2023-08-06T12:54:17;2.58;;;0.60;;
24147;SDS011;12309;51.450;-2.624;2023-08-06T12:56:43;1.30;;;0.90;;
24147;SDS011;12309;51.450;-2.624;2023-08-06T12:59:10;1.70;;;0.70;;
24147;SDS011;12309;51.450;-2.624;2023-08-06T13:01:39;3.38;;;0.90;;
24147;SDS011;12309;51.450;-2.624;2023-08-06T13:04:05;1.20;;;0.60;;
24147;SDS011;12309;51.450;-2.624;2023-08-06T13:06:30;1.17;;;0.50;;
24147;SDS011;12309;51.450;-2.624;2023-08-06T13:09:01;1.35;;;0.85;;
24147;SDS011;12309;51.450;-2.624;2023-08-06T13:11:27;1.65;;;0.90;;
24147;SDS011;12309;51.450;-2.624;2023-08-06T13:13:52;3.25;;;0.98;;
24147;SDS011;12309;51.450;-2.624;2023-08-06T13:16:18;3.70;;;0.95;;
24147;SDS011;12309;51.450;-2.624;2023-08-06T13:18:43;3.00;;;1.00;;
24147;SDS011;12309;51.450;-2.624;2023-08-06T13:21:09;1.67;;;0.90;;
24147;SDS011;12309;51.450;-2.624;2023-08-06T13:23:34;2.95;;;1.08;;
24147;SDS011;12309;51.450;-2.624;2023-08-06T13:26:00;2.20;;;1.08;;
24147;SDS011;12309;51.450;-2.624;2023-08-06T13:28:26;2.47;;;1.00;;
24147;SDS011;12309;51.450;-2.624;2023-08-06T13:30:51;2.80;;;0.73;;
24147;SDS011;12309;51.450;-2.624;2023-08-06T13:33:17;2.42;;;0.80;;
24147;SDS011;12309;51.450;-2.624;2023-08-06T13:35:43;1.90;;;0.98;;
24147;SDS011;12309;51.450;-2.624;2023-08-06T13:38:08;0.95;;;0.70;;
24147;SDS011;12309;51.450;-2.624;2023-08-06T13:40:34;5.28;;;0.85;;
24147;SDS011;12309;51.450;-2.624;2023-08-06T13:43:00;2.67;;;0.80;;
24147;SDS011;12309;51.450;-2.624;2023-08-06T13:45:26;2.60;;;0.90;;
24147;SDS011;12309;51.450;-2.624;2023-08-06T13:47:51;4.53;;;0.95;;
24147;SDS011;12309;51.450;-2.624;2023-08-06T13:50:17;3.10;;;0.77;;
24147;SDS011;12309;51.450;-2.624;2023-08-06T13:52:44;2.25;;;1.02;;
24147;SDS011;12309;51.450;-2.624;2023-08-06T13:55:09;6.38;;;0.90;;
24147;SDS011;12309;51.450;-2.624;2023-08-06T13:57:35;2.63;;;0.88;;
24147;SDS011;12309;51.450;-2.624;2023-08-06T14:00:01;1.60;;;0.82;;
24147;SDS011;12309;51.450;-2.624;2023-08-06T14:02:27;1.10;;;0.80;;
24147;SDS011;12309;51.450;-2.624;2023-08-06T14:04:53;2.72;;;1.10;;
24147;SDS011;12309;51.450;-2.624;2023-08-06T14:07:19;3.25;;;1.10;;
24147;SDS011;12309;51.450;-2.624;2023-08-06T14:09:45;5.47;;;1.30;;
24147;SDS011;12309;51.450;-2.624;2023-08-06T14:12:12;1.73;;;1.08;;
24147;SDS011;12309;51.450;-2.624;2023-08-06T14:14:38;1.45;;;0.75;;
24147;SDS011;12309;51.450;-2.624;2023-08-06T14:17:04;2.45;;;1.02;;
24147;SDS011;12309;51.450;-2.624;2023-08-06T14:19:29;1.85;;;0.98;;
24147;SDS011;12309;51.450;-2.624;2023-08-06T14:21:55;4.63;;;1.00;;
24147;SDS011;12309;51.450;-2.624;2023-08-06T14:24:21;2.55;;;1.15;;
24147;SDS011;12309;51.450;-2.624;2023-08-06T14:26:46;2.85;;;1.27;;
24147;SDS011;12309;51.450;-2.624;2023-08-06T14:29:12;3.05;;;1.20;;
24147;SDS011;12309;51.450;-2.624;2023-08-06T14:31:38;2.90;;;1.13;;
24147;SDS011;12309;51.450;-2.624;2023-08-06T14:34:04;3.13;;;1.30;;
24147;SDS011;12309;51.450;-2.624;2023-08-06T14:36:30;3.60;;;1.50;;
24147;SDS011;12309;51.450;-2.624;2023-08-06T14:38:56;6.75;;;1.92;;
24147;SDS011;12309;51.450;-2.624;2023-08-06T14:41:22;2.15;;;1.35;;